Аэропорт: Шымкент. Шымкент

ICAO: UAII

METAR:
2018/07/16 20:00
UAII 162000Z 05003MPS CAVOK 28/07 Q1001 R10/0///70 NOSIG RMK QFE716/0954
METAR:
2018/07/16 18:18
TAF UAII 161700Z 1618/1718 04005MPS 7000 SCT050 BKN100 TX38/1709Z TN20/1701Z 
      TEMPO 1618/1704 10007MPS 
      TEMPO 1704/1716 35005G10MPS